createdAt,value
2018-09-21T00:01:55.431Z,20.70
2018-09-21T00:04:25.499Z,20.70
2018-09-21T00:06:55.362Z,20.70
2018-09-21T00:09:25.176Z,20.70
2018-09-21T00:11:55.249Z,20.70
2018-09-21T00:14:25.242Z,20.70
2018-09-21T00:16:55.304Z,20.70
2018-09-21T00:19:25.185Z,20.80
2018-09-21T00:21:55.117Z,20.80
2018-09-21T00:24:25.103Z,20.80
2018-09-21T00:26:54.999Z,20.80
2018-09-21T00:29:25.399Z,20.80
2018-09-21T00:31:55.178Z,20.80
2018-09-21T00:34:25.266Z,20.70
2018-09-21T00:36:57.285Z,20.70
2018-09-21T00:39:27.371Z,20.80
2018-09-21T00:41:57.719Z,20.80
2018-09-21T00:44:27.757Z,20.80
2018-09-21T00:46:57.821Z,20.80
2018-09-21T00:49:27.889Z,20.80
2018-09-21T00:51:57.886Z,20.80
2018-09-21T00:54:28.243Z,20.80
2018-09-21T00:56:58.573Z,20.80
2018-09-21T00:59:28.418Z,20.70
2018-09-21T01:01:58.297Z,20.70
2018-09-21T01:04:32.364Z,20.70
2018-09-21T01:07:02.300Z,20.70
2018-09-21T01:09:32.277Z,20.60
2018-09-21T01:12:02.297Z,20.60
2018-09-21T01:14:32.141Z,20.60
2018-09-21T01:17:02.075Z,20.70
2018-09-21T01:19:32.387Z,20.70
2018-09-21T01:22:02.570Z,20.70
2018-09-21T01:24:32.581Z,20.60
2018-09-21T01:27:02.594Z,20.60
2018-09-21T01:29:32.584Z,20.60
2018-09-21T01:32:04.409Z,20.60
2018-09-21T01:34:34.183Z,20.60
2018-09-21T01:37:04.106Z,20.60
2018-09-21T01:39:34.156Z,20.60
2018-09-21T01:42:04.164Z,20.60
2018-09-21T01:44:34.331Z,20.70
2018-09-21T01:47:04.290Z,20.60
2018-09-21T01:49:34.310Z,20.60
2018-09-21T01:52:04.407Z,20.60
2018-09-21T01:54:34.823Z,20.60
2018-09-21T01:57:04.900Z,20.60
2018-09-21T01:59:34.808Z,20.60
2018-09-21T02:02:04.790Z,20.60
2018-09-21T02:04:39.310Z,20.60
2018-09-21T02:07:11.898Z,20.60
2018-09-21T02:09:41.947Z,20.60
2018-09-21T02:12:11.926Z,20.60
2018-09-21T02:14:41.893Z,20.70
2018-09-21T02:17:11.798Z,20.70
2018-09-21T02:19:42.204Z,20.70
2018-09-21T02:22:12.238Z,20.70
2018-09-21T02:24:42.153Z,20.80
2018-09-21T02:27:12.289Z,20.80
2018-09-21T02:29:42.466Z,20.80
2018-09-21T02:32:12.642Z,20.80
2018-09-21T02:34:42.596Z,20.80
2018-09-21T02:37:12.783Z,20.90
2018-09-21T02:39:43.050Z,20.80
2018-09-21T02:42:13.352Z,20.80
2018-09-21T02:44:43.950Z,20.90
2018-09-21T02:47:14.457Z,20.80
2018-09-21T02:49:44.727Z,20.90
2018-09-21T02:52:14.670Z,20.90
2018-09-21T02:54:44.627Z,20.90
2018-09-21T02:57:14.979Z,20.90
2018-09-21T02:59:45.177Z,20.90
2018-09-21T03:02:15.855Z,20.90
2018-09-21T03:04:50.957Z,20.90
2018-09-21T03:07:21.342Z,20.90
2018-09-21T03:09:51.777Z,20.90
2018-09-21T03:12:22.269Z,20.90
2018-09-21T03:14:53.043Z,20.90
2018-09-21T03:17:23.434Z,20.90
2018-09-21T03:19:53.819Z,20.90
2018-09-21T03:22:23.843Z,20.90
2018-09-21T03:24:54.234Z,20.90
2018-09-21T03:27:24.635Z,20.90
2018-09-21T03:29:55.298Z,20.80
2018-09-21T03:32:25.817Z,20.80
2018-09-21T03:34:56.193Z,20.80
2018-09-21T03:37:26.365Z,20.80
2018-09-21T03:39:56.672Z,20.80
2018-09-21T03:42:26.888Z,20.80
2018-09-21T03:44:57.346Z,20.80
2018-09-21T03:47:27.432Z,20.80
2018-09-21T03:49:57.551Z,20.80
2018-09-21T03:52:27.437Z,20.80
2018-09-21T03:54:57.541Z,20.80
2018-09-21T03:57:27.705Z,20.70
2018-09-21T03:59:57.886Z,20.80
2018-09-21T04:02:27.818Z,20.80
2018-09-21T04:04:58.824Z,20.80
2018-09-21T04:07:29.025Z,20.80
2018-09-21T04:09:59.521Z,20.80
2018-09-21T04:12:30.767Z,20.80
2018-09-21T04:15:01.267Z,20.80
2018-09-21T04:17:31.847Z,20.80
2018-09-21T04:20:01.980Z,20.80
2018-09-21T04:22:32.471Z,20.90
2018-09-21T04:25:03.360Z,20.90
2018-09-21T04:27:34.831Z,21.00
2018-09-21T04:30:05.289Z,21.00
2018-09-21T04:32:35.681Z,21.00
2018-09-21T04:35:06.105Z,21.10
2018-09-21T04:37:36.658Z,21.10
2018-09-21T04:40:06.913Z,21.20
2018-09-21T04:42:37.261Z,21.20
2018-09-21T04:45:07.908Z,21.20
2018-09-21T04:47:37.972Z,21.20
2018-09-21T04:50:08.242Z,21.20
2018-09-21T04:52:39.154Z,21.30
2018-09-21T04:55:09.696Z,21.30
2018-09-21T04:57:39.803Z,21.30
2018-09-21T05:00:10.415Z,21.20
2018-09-21T05:02:40.664Z,21.20
2018-09-21T05:05:19.291Z,21.20
2018-09-21T05:07:58.565Z,21.20
2018-09-21T05:10:29.761Z,21.20
2018-09-21T05:13:00.179Z,21.20
2018-09-21T05:15:30.256Z,21.30
2018-09-21T05:18:00.632Z,21.30
2018-09-21T05:20:31.840Z,21.40
2018-09-21T05:23:02.044Z,21.40
2018-09-21T05:25:32.697Z,21.40
2018-09-21T05:28:02.760Z,21.50
2018-09-21T05:30:32.963Z,21.50
2018-09-21T05:33:02.780Z,21.50
2018-09-21T05:35:32.937Z,21.40
2018-09-21T05:38:02.840Z,21.50
2018-09-21T05:40:32.906Z,21.40
2018-09-21T05:43:02.757Z,21.50
2018-09-21T05:45:32.775Z,21.50
2018-09-21T05:48:02.548Z,21.60
2018-09-21T05:50:33.124Z,21.60
2018-09-21T05:53:02.895Z,21.60
2018-09-21T05:55:33.156Z,21.60
2018-09-21T05:58:03.426Z,21.60
2018-09-21T06:00:33.385Z,21.50
2018-09-21T06:03:03.439Z,21.60
2018-09-21T06:05:33.497Z,21.60
2018-09-21T06:08:03.630Z,21.60
2018-09-21T06:10:33.623Z,21.60
2018-09-21T06:13:03.877Z,21.60
2018-09-21T06:15:34.051Z,21.60
2018-09-21T06:18:04.474Z,21.60
2018-09-21T06:20:34.530Z,21.60
2018-09-21T06:23:04.941Z,21.70
2018-09-21T06:25:35.317Z,21.70
2018-09-21T06:28:05.607Z,21.70
2018-09-21T06:30:35.564Z,21.80
2018-09-21T06:33:05.875Z,21.90
2018-09-21T06:35:35.981Z,21.80
2018-09-21T06:38:12.625Z,21.90
2018-09-21T06:40:42.836Z,21.90
2018-09-21T06:43:12.747Z,21.90
2018-09-21T06:45:42.624Z,21.90
2018-09-21T06:48:12.995Z,21.90
2018-09-21T06:50:42.953Z,21.90
2018-09-21T06:53:12.876Z,21.90
2018-09-21T06:55:42.696Z,21.90
2018-09-21T06:58:12.772Z,21.90
2018-09-21T07:00:42.762Z,21.90
2018-09-21T07:03:12.743Z,21.90
2018-09-21T07:05:42.655Z,21.90
2018-09-21T07:08:12.487Z,21.90
2018-09-21T07:10:42.555Z,22.00
2018-09-21T07:13:12.491Z,22.00
2018-09-21T07:15:42.834Z,22.00
2018-09-21T07:18:12.649Z,22.00
2018-09-21T07:20:42.647Z,22.00
2018-09-21T07:23:12.675Z,21.90
2018-09-21T07:25:42.616Z,21.90
2018-09-21T07:28:12.500Z,21.90
2018-09-21T07:30:42.271Z,21.90
2018-09-21T07:33:12.036Z,21.80
2018-09-21T07:35:42.132Z,21.80
2018-09-21T07:38:12.032Z,21.80
2018-09-21T07:40:41.940Z,21.80
2018-09-21T07:43:11.997Z,21.70
2018-09-21T07:45:41.901Z,21.60
2018-09-21T07:48:11.769Z,21.60
2018-09-21T07:50:41.519Z,21.60
2018-09-21T07:53:11.575Z,21.60
2018-09-21T07:55:41.512Z,21.50
2018-09-21T07:58:11.564Z,21.50
2018-09-21T08:00:41.449Z,21.50
2018-09-21T08:03:11.455Z,21.50
2018-09-21T08:05:41.319Z,21.50
2018-09-21T08:08:11.486Z,21.50
2018-09-21T08:10:41.270Z,21.50
2018-09-21T08:13:11.242Z,21.50
2018-09-21T08:15:41.165Z,21.50
2018-09-21T08:18:11.500Z,21.40
2018-09-21T08:20:41.479Z,21.40
2018-09-21T08:23:11.315Z,21.40
2018-09-21T08:25:41.596Z,21.30
2018-09-21T08:28:11.385Z,21.30
2018-09-21T08:30:41.284Z,21.30
2018-09-21T08:33:11.109Z,21.10
2018-09-21T08:35:41.185Z,20.90
2018-09-21T08:38:11.092Z,20.40
2018-09-21T08:40:41.061Z,19.60
2018-09-21T08:43:11.029Z,18.60
2018-09-21T08:45:41.416Z,17.90
2018-09-21T08:48:11.558Z,17.50
2018-09-21T08:50:41.488Z,17.20
2018-09-21T08:53:11.457Z,16.90
2018-09-21T08:55:41.433Z,16.80
2018-09-21T08:58:11.787Z,16.80
2018-09-21T09:00:41.735Z,16.60
2018-09-21T09:03:12.011Z,16.60
2018-09-21T09:05:42.004Z,16.70
2018-09-21T09:08:12.164Z,16.60
2018-09-21T09:10:42.050Z,16.60
2018-09-21T09:13:12.043Z,16.50
2018-09-21T09:15:41.933Z,16.40
2018-09-21T09:18:11.762Z,16.50
2018-09-21T09:20:48.272Z,16.50
2018-09-21T09:23:18.358Z,16.40
2018-09-21T09:25:48.210Z,16.60
2018-09-21T09:28:18.095Z,16.50
2018-09-21T09:30:48.088Z,16.60
2018-09-21T09:33:18.115Z,16.60
2018-09-21T09:35:47.989Z,16.70
2018-09-21T09:38:17.916Z,16.60
2018-09-21T09:40:47.915Z,16.70
2018-09-21T09:43:18.242Z,16.70
2018-09-21T09:45:48.090Z,16.80
2018-09-21T09:48:18.090Z,16.80
2018-09-21T09:50:48.068Z,16.80
2018-09-21T09:53:18.050Z,16.80
2018-09-21T09:55:47.891Z,16.70
2018-09-21T09:58:17.992Z,16.80
2018-09-21T10:00:52.893Z,16.80
2018-09-21T10:03:24.805Z,16.80
2018-09-21T10:05:54.644Z,16.80
2018-09-21T10:08:25.431Z,16.90
2018-09-21T10:10:55.292Z,17.10
2018-09-21T10:13:25.378Z,17.10
2018-09-21T10:15:55.355Z,17.20
2018-09-21T10:18:25.617Z,17.30
2018-09-21T10:20:55.473Z,17.30
2018-09-21T10:23:25.304Z,17.40
2018-09-21T10:25:55.358Z,17.50
2018-09-21T10:28:25.587Z,17.50
2018-09-21T10:30:55.263Z,17.60
2018-09-21T10:33:25.048Z,17.60
2018-09-21T10:35:55.004Z,17.60
2018-09-21T10:38:24.906Z,17.70
2018-09-21T10:40:54.668Z,17.80
2018-09-21T10:43:24.611Z,17.90
2018-09-21T10:45:54.559Z,17.90
2018-09-21T10:48:24.604Z,17.90
2018-09-21T10:50:54.498Z,18.00
2018-09-21T10:53:24.269Z,18.10
2018-09-21T10:55:54.369Z,18.10
2018-09-21T10:58:24.267Z,18.20
2018-09-21T11:00:54.358Z,18.10
2018-09-21T11:03:24.241Z,17.90
2018-09-21T11:05:54.097Z,18.00
2018-09-21T11:08:23.954Z,17.80
2018-09-21T11:10:53.882Z,17.80
2018-09-21T11:13:23.799Z,17.90
2018-09-21T11:15:53.533Z,17.90
2018-09-21T11:18:23.543Z,17.90
2018-09-21T11:20:53.307Z,17.80
2018-09-21T11:23:23.493Z,17.70
2018-09-21T11:25:53.352Z,17.80
2018-09-21T11:28:23.355Z,17.90
2018-09-21T11:30:53.283Z,18.00
2018-09-21T11:33:23.117Z,18.10
2018-09-21T11:35:53.319Z,18.30
2018-09-21T11:38:23.675Z,18.40
2018-09-21T11:40:53.551Z,18.50
2018-09-21T11:43:23.783Z,18.60
2018-09-21T11:45:53.671Z,18.70
2018-09-21T11:48:23.905Z,18.80
2018-09-21T11:50:53.974Z,18.90
2018-09-21T11:53:23.950Z,18.80
2018-09-21T11:55:53.688Z,18.80
2018-09-21T11:58:23.783Z,18.80
2018-09-21T12:00:53.768Z,18.70
2018-09-21T12:03:23.879Z,18.80
2018-09-21T12:05:53.764Z,18.80
2018-09-21T12:08:23.675Z,18.70
2018-09-21T12:10:53.513Z,18.70
2018-09-21T12:13:23.403Z,18.40
2018-09-21T12:15:53.303Z,18.40
2018-09-21T12:18:23.183Z,18.30
2018-09-21T12:20:53.435Z,18.30
2018-09-21T12:23:23.653Z,18.30
2018-09-21T12:25:53.769Z,18.30
2018-09-21T12:28:24.149Z,18.30
2018-09-21T12:30:55.013Z,18.60
2018-09-21T12:33:24.893Z,18.70
2018-09-21T12:35:55.519Z,18.60
2018-09-21T12:38:25.391Z,18.50
2018-09-21T12:40:55.650Z,18.50
2018-09-21T12:43:25.431Z,18.50
2018-09-21T12:45:55.305Z,18.50
2018-09-21T12:48:25.222Z,18.50
2018-09-21T12:50:55.162Z,18.50
2018-09-21T12:53:25.168Z,18.50
2018-09-21T12:55:55.418Z,18.60
2018-09-21T12:58:25.486Z,18.60
2018-09-21T13:00:55.400Z,18.70
2018-09-21T13:03:25.396Z,18.80
2018-09-21T13:05:57.275Z,18.80
2018-09-21T13:08:27.614Z,18.80
2018-09-21T13:10:58.131Z,18.80
2018-09-21T13:13:28.264Z,18.80
2018-09-21T13:15:58.286Z,18.70
2018-09-21T13:18:28.208Z,18.70
2018-09-21T13:20:58.518Z,18.60
2018-09-21T13:23:28.867Z,18.60
2018-09-21T13:25:58.953Z,18.60
2018-09-21T13:28:28.948Z,18.70
2018-09-21T13:30:59.146Z,18.70
2018-09-21T13:33:29.055Z,18.70
2018-09-21T13:35:58.889Z,18.60
2018-09-21T13:38:28.861Z,18.50
2018-09-21T13:40:58.757Z,18.60
2018-09-21T13:43:28.850Z,18.50
2018-09-21T13:45:58.829Z,18.50
2018-09-21T13:48:28.962Z,18.50
2018-09-21T13:50:58.882Z,18.70
2018-09-21T13:53:28.839Z,18.80
2018-09-21T13:55:58.878Z,19.10
2018-09-21T13:58:29.249Z,19.40
2018-09-21T14:00:59.152Z,19.60
2018-09-21T14:03:29.088Z,19.70
2018-09-21T14:06:03.047Z,19.80
2018-09-21T14:08:33.348Z,19.70
2018-09-21T14:11:03.355Z,19.90
2018-09-21T14:13:33.222Z,20.10
2018-09-21T14:16:03.199Z,20.10
2018-09-21T14:18:33.100Z,20.10
2018-09-21T14:21:03.064Z,19.80
2018-09-21T14:24:10.889Z,19.30
2018-09-21T14:26:40.695Z,19.00
2018-09-21T14:29:10.703Z,18.60
2018-09-21T14:31:40.865Z,18.50
2018-09-21T14:34:11.161Z,18.30
2018-09-21T14:36:41.008Z,18.20
2018-09-21T14:39:12.228Z,18.20
2018-09-21T14:41:42.099Z,18.10
2018-09-21T14:44:12.255Z,18.00
2018-09-21T14:46:42.573Z,17.90
2018-09-21T14:49:12.691Z,17.80
2018-09-21T14:51:42.752Z,17.60
2018-09-21T14:54:12.784Z,17.60
2018-09-21T14:56:42.945Z,17.60
2018-09-21T14:59:12.857Z,17.70
2018-09-21T15:01:42.807Z,17.70
2018-09-21T15:04:12.870Z,17.70
2018-09-21T15:06:43.180Z,17.90
2018-09-21T15:09:13.083Z,18.00
2018-09-21T15:11:43.464Z,18.00
2018-09-21T15:14:13.520Z,18.10
2018-09-21T15:16:43.636Z,18.00
2018-09-21T15:19:13.416Z,17.90
2018-09-21T15:21:43.531Z,18.00
2018-09-21T15:24:14.713Z,18.00
2018-09-21T15:26:44.861Z,18.00
2018-09-21T15:29:14.824Z,17.90
2018-09-21T15:31:44.696Z,17.80
2018-09-21T15:34:15.833Z,17.70
2018-09-21T15:36:46.992Z,17.80
2018-09-21T15:39:19.640Z,17.80
2018-09-21T15:41:53.061Z,17.70
2018-09-21T15:44:24.650Z,17.70
2018-09-21T15:46:59.883Z,17.80
2018-09-21T15:49:32.297Z,17.70
2018-09-21T15:52:04.017Z,17.70
2018-09-21T15:54:35.305Z,17.70
2018-09-21T15:57:05.438Z,17.70
2018-09-21T15:59:35.494Z,17.60
2018-09-21T16:02:05.417Z,17.60
2018-09-21T16:04:35.264Z,17.60
2018-09-21T16:07:05.549Z,17.60
2018-09-21T16:09:35.544Z,17.60
2018-09-21T16:12:05.481Z,17.50
2018-09-21T16:14:35.377Z,17.50
2018-09-21T16:17:05.236Z,17.50
2018-09-21T16:19:35.279Z,17.50
2018-09-21T16:22:05.250Z,17.50
2018-09-21T16:24:35.138Z,17.50
2018-09-21T16:27:05.187Z,17.50
2018-09-21T16:29:35.443Z,17.50
2018-09-21T16:32:05.405Z,17.50
2018-09-21T16:34:36.272Z,17.40
2018-09-21T16:37:06.101Z,17.30
2018-09-21T16:39:36.001Z,17.20
2018-09-21T16:42:06.041Z,17.20
2018-09-21T16:44:36.373Z,17.20
2018-09-21T16:47:06.592Z,17.20
2018-09-21T16:49:36.389Z,17.20
2018-09-21T16:52:06.264Z,17.10
2018-09-21T16:54:36.281Z,17.10
2018-09-21T16:57:06.503Z,17.10
2018-09-21T16:59:36.561Z,17.00
2018-09-21T17:02:06.726Z,17.00
2018-09-21T17:04:36.698Z,17.00
2018-09-21T17:07:06.615Z,16.90
2018-09-21T17:09:37.400Z,16.80
2018-09-21T17:12:07.343Z,16.80
2018-09-21T17:14:37.225Z,16.70
2018-09-21T17:17:07.152Z,16.70
2018-09-21T17:19:37.067Z,16.70
2018-09-21T17:22:07.142Z,16.70
2018-09-21T17:24:37.106Z,16.70
2018-09-21T17:27:07.065Z,16.70
2018-09-21T17:29:37.145Z,16.70
2018-09-21T17:32:07.297Z,16.60
2018-09-21T17:34:37.303Z,16.50
2018-09-21T17:37:07.429Z,16.50
2018-09-21T17:39:37.219Z,16.50
2018-09-21T17:42:07.401Z,16.60
2018-09-21T17:44:37.608Z,16.70
2018-09-21T17:47:07.718Z,16.80
2018-09-21T17:49:37.675Z,16.80
2018-09-21T17:52:07.840Z,16.70
2018-09-21T17:54:37.983Z,16.60
2018-09-21T17:57:08.539Z,16.50
2018-09-21T17:59:38.548Z,16.50
2018-09-21T18:02:08.596Z,16.40
2018-09-21T18:04:38.605Z,16.40
2018-09-21T18:07:08.491Z,16.50
2018-09-21T18:09:38.783Z,16.40
2018-09-21T18:12:08.716Z,16.50
2018-09-21T18:14:38.567Z,16.50
2018-09-21T18:17:08.670Z,16.40
2018-09-21T18:19:39.349Z,16.40
2018-09-21T18:22:09.680Z,16.40
2018-09-21T18:24:39.694Z,16.30
2018-09-21T18:27:16.535Z,16.30
2018-09-21T18:29:46.483Z,16.10
2018-09-21T18:32:16.404Z,16.00
2018-09-21T18:34:46.537Z,15.90
2018-09-21T18:37:16.503Z,15.90
2018-09-21T18:39:46.576Z,15.80
2018-09-21T18:42:16.596Z,15.80
2018-09-21T18:44:46.630Z,15.70
2018-09-21T18:47:16.918Z,15.70
2018-09-21T18:49:47.234Z,15.70
2018-09-21T18:52:17.363Z,15.60
2018-09-21T18:54:47.831Z,15.60
2018-09-21T18:57:18.385Z,15.60
2018-09-21T18:59:48.924Z,15.60
2018-09-21T19:02:19.102Z,15.50
2018-09-21T19:04:49.390Z,15.60
2018-09-21T19:07:24.871Z,15.60
2018-09-21T19:09:55.493Z,15.60
2018-09-21T19:12:26.393Z,15.60
2018-09-21T19:14:57.244Z,15.60
2018-09-21T19:17:28.097Z,15.50
2018-09-21T19:19:58.517Z,15.50
2018-09-21T19:22:29.029Z,15.50
2018-09-21T19:24:59.851Z,15.50
2018-09-21T19:27:30.324Z,15.50
2018-09-21T19:30:01.313Z,15.50
2018-09-21T19:32:31.771Z,15.60
2018-09-21T19:35:02.197Z,15.70
2018-09-21T19:37:32.793Z,15.70
2018-09-21T19:40:03.367Z,15.80
2018-09-21T19:42:33.571Z,15.80
2018-09-21T19:45:03.949Z,15.80
2018-09-21T19:47:34.400Z,15.80
2018-09-21T19:50:05.318Z,15.80
2018-09-21T19:52:35.552Z,15.80
2018-09-21T19:55:06.111Z,15.80
2018-09-21T19:57:36.317Z,15.70
2018-09-21T20:00:07.200Z,15.70
2018-09-21T20:02:37.779Z,15.70
2018-09-21T20:05:08.252Z,15.70
2018-09-21T20:07:38.582Z,15.60
2018-09-21T20:10:09.073Z,15.70
2018-09-21T20:12:39.549Z,15.60
2018-09-21T20:15:09.828Z,15.70
2018-09-21T20:17:40.123Z,15.70
2018-09-21T20:20:10.366Z,15.70
2018-09-21T20:22:40.700Z,15.70
2018-09-21T20:25:11.211Z,15.70
2018-09-21T20:27:41.733Z,15.70
2018-09-21T20:30:17.527Z,15.60
2018-09-21T20:32:52.916Z,15.60
2018-09-21T20:35:23.667Z,15.50
2018-09-21T20:37:53.956Z,15.50
2018-09-21T20:40:24.327Z,15.60
2018-09-21T20:42:54.474Z,15.50
2018-09-21T20:45:24.838Z,15.50
2018-09-21T20:47:54.908Z,15.50
2018-09-21T20:50:25.279Z,15.40
2018-09-21T20:52:55.789Z,15.40
2018-09-21T20:55:26.292Z,15.30
2018-09-21T20:57:56.810Z,15.30
2018-09-21T21:03:05.272Z,15.30
2018-09-21T21:05:35.478Z,15.20
2018-09-21T21:08:05.943Z,15.20
2018-09-21T21:10:35.855Z,15.20
2018-09-21T21:13:06.263Z,15.20
2018-09-21T21:15:36.308Z,15.10
2018-09-21T21:18:06.884Z,15.00
2018-09-21T21:20:37.176Z,15.10
2018-09-21T21:23:07.475Z,15.00
2018-09-21T21:25:37.466Z,15.00
2018-09-21T21:28:07.911Z,15.00
2018-09-21T21:30:38.203Z,15.00
2018-09-21T21:33:08.318Z,15.10
2018-09-21T21:35:38.450Z,15.00
2018-09-21T21:38:08.450Z,15.00
2018-09-21T21:40:38.717Z,14.90
2018-09-21T21:43:08.560Z,14.90
2018-09-21T21:45:38.364Z,14.90
2018-09-21T21:48:08.476Z,14.90
2018-09-21T21:50:38.336Z,14.90
2018-09-21T21:53:08.706Z,14.80
2018-09-21T21:55:38.627Z,14.80
2018-09-21T21:58:08.756Z,14.80
2018-09-21T22:00:43.867Z,14.80
2018-09-21T22:03:13.977Z,14.70
2018-09-21T22:05:43.868Z,14.70
2018-09-21T22:08:13.732Z,14.70
2018-09-21T22:10:43.881Z,14.70
2018-09-21T22:13:18.858Z,14.70
2018-09-21T22:15:48.744Z,14.70
2018-09-21T22:18:18.635Z,14.70
2018-09-21T22:20:51.002Z,14.70
2018-09-21T22:23:21.094Z,14.60
2018-09-21T22:25:50.973Z,14.70
2018-09-21T22:28:20.787Z,14.70
2018-09-21T22:30:50.705Z,14.70
2018-09-21T22:33:20.678Z,14.70
2018-09-21T22:35:51.138Z,14.70
2018-09-21T22:38:20.971Z,14.70
2018-09-21T22:40:51.039Z,14.70
2018-09-21T22:43:21.108Z,14.60
2018-09-21T22:45:50.865Z,14.70
2018-09-21T22:48:20.798Z,14.70
2018-09-21T22:50:50.728Z,14.70
2018-09-21T22:53:20.827Z,14.70
2018-09-21T22:55:51.086Z,14.80
2018-09-21T22:58:21.135Z,14.80
2018-09-21T23:00:51.135Z,14.80
2018-09-21T23:03:21.897Z,14.70
2018-09-21T23:05:52.324Z,14.70
2018-09-21T23:08:22.336Z,14.70
2018-09-21T23:10:52.267Z,14.70
2018-09-21T23:13:22.309Z,14.70
2018-09-21T23:15:52.807Z,14.60
2018-09-21T23:18:22.850Z,14.60
2018-09-21T23:20:52.745Z,14.70
2018-09-21T23:23:22.752Z,14.60
2018-09-21T23:25:52.793Z,14.60
2018-09-21T23:28:22.613Z,14.70
2018-09-21T23:30:52.527Z,14.70
2018-09-21T23:33:22.524Z,14.70
2018-09-21T23:35:52.491Z,14.70
2018-09-21T23:38:22.475Z,14.70
2018-09-21T23:40:52.229Z,14.60
2018-09-21T23:43:22.069Z,14.60
2018-09-21T23:45:52.005Z,14.60
2018-09-21T23:48:22.114Z,14.60
2018-09-21T23:50:52.151Z,14.60
2018-09-21T23:53:21.935Z,14.70
2018-09-21T23:55:51.824Z,14.70
2018-09-21T23:58:21.823Z,14.70
